sensor_id;sensor_type;location;lat;lon;timestamp;P1;durP1;ratioP1;P2;durP2;ratioP2
71462;SDS011;59266;52.608;13.260;2024-02-23T00:01:32;3.00;;;1.10;;
71462;SDS011;59266;52.608;13.260;2024-02-23T00:03:58;2.45;;;0.82;;
71462;SDS011;59266;52.608;13.260;2024-02-23T00:06:25;5.22;;;1.17;;
71462;SDS011;59266;52.608;13.260;2024-02-23T00:08:54;4.43;;;0.95;;
71462;SDS011;59266;52.608;13.260;2024-02-23T00:11:21;2.75;;;0.90;;
71462;SDS011;59266;52.608;13.260;2024-02-23T00:13:49;4.57;;;1.00;;
71462;SDS011;59266;52.608;13.260;2024-02-23T00:16:16;3.90;;;1.08;;
71462;SDS011;59266;52.608;13.260;2024-02-23T00:18:42;2.67;;;1.00;;
71462;SDS011;59266;52.608;13.260;2024-02-23T00:21:09;3.00;;;0.90;;
71462;SDS011;59266;52.608;13.260;2024-02-23T00:23:36;1.83;;;0.80;;
71462;SDS011;59266;52.608;13.260;2024-02-23T00:26:02;3.45;;;1.00;;
71462;SDS011;59266;52.608;13.260;2024-02-23T00:28:29;3.45;;;0.80;;
71462;SDS011;59266;52.608;13.260;2024-02-23T00:30:56;2.58;;;0.82;;
71462;SDS011;59266;52.608;13.260;2024-02-23T00:33:22;3.63;;;1.15;;
71462;SDS011;59266;52.608;13.260;2024-02-23T00:35:49;2.15;;;0.80;;
71462;SDS011;59266;52.608;13.260;2024-02-23T00:38:16;2.58;;;0.90;;
71462;SDS011;59266;52.608;13.260;2024-02-23T00:40:42;2.13;;;0.85;;
71462;SDS011;59266;52.608;13.260;2024-02-23T00:43:09;2.53;;;1.00;;
71462;SDS011;59266;52.608;13.260;2024-02-23T00:45:36;2.72;;;1.00;;
71462;SDS011;59266;52.608;13.260;2024-02-23T00:48:02;2.85;;;1.00;;
71462;SDS011;59266;52.608;13.260;2024-02-23T00:50:29;3.97;;;1.20;;
71462;SDS011;59266;52.608;13.260;2024-02-23T00:52:56;2.55;;;0.82;;
71462;SDS011;59266;52.608;13.260;2024-02-23T00:55:22;3.58;;;0.90;;
71462;SDS011;59266;52.608;13.260;2024-02-23T00:57:51;1.88;;;0.90;;
71462;SDS011;59266;52.608;13.260;2024-02-23T01:00:18;2.22;;;0.90;;
71462;SDS011;59266;52.608;13.260;2024-02-23T01:02:44;3.63;;;1.08;;
71462;SDS011;59266;52.608;13.260;2024-02-23T01:05:11;2.40;;;0.93;;
71462;SDS011;59266;52.608;13.260;2024-02-23T01:07:37;2.38;;;0.88;;
71462;SDS011;59266;52.608;13.260;2024-02-23T01:10:04;4.03;;;0.90;;
71462;SDS011;59266;52.608;13.260;2024-02-23T01:12:31;2.58;;;0.95;;
71462;SDS011;59266;52.608;13.260;2024-02-23T01:14:58;3.97;;;1.05;;
71462;SDS011;59266;52.608;13.260;2024-02-23T01:17:28;2.95;;;0.88;;
71462;SDS011;59266;52.608;13.260;2024-02-23T01:19:54;2.53;;;0.90;;
71462;SDS011;59266;52.608;13.260;2024-02-23T01:22:21;3.30;;;0.90;;
71462;SDS011;59266;52.608;13.260;2024-02-23T01:24:48;2.50;;;0.90;;
71462;SDS011;59266;52.608;13.260;2024-02-23T01:27:15;2.80;;;1.00;;
71462;SDS011;59266;52.608;13.260;2024-02-23T01:29:41;3.92;;;1.00;;
71462;SDS011;59266;52.608;13.260;2024-02-23T01:32:08;3.92;;;1.10;;
71462;SDS011;59266;52.608;13.260;2024-02-23T01:34:35;3.50;;;0.98;;
71462;SDS011;59266;52.608;13.260;2024-02-23T01:37:01;4.35;;;1.20;;
71462;SDS011;59266;52.608;13.260;2024-02-23T01:39:28;3.22;;;1.10;;
71462;SDS011;59266;52.608;13.260;2024-02-23T01:41:55;2.30;;;0.90;;
71462;SDS011;59266;52.608;13.260;2024-02-23T01:44:22;3.53;;;1.23;;
71462;SDS011;59266;52.608;13.260;2024-02-23T01:46:49;1.67;;;0.80;;
71462;SDS011;59266;52.608;13.260;2024-02-23T01:49:16;2.00;;;0.90;;
71462;SDS011;59266;52.608;13.260;2024-02-23T01:51:43;2.40;;;0.80;;
71462;SDS011;59266;52.608;13.260;2024-02-23T01:54:10;2.72;;;0.90;;
71462;SDS011;59266;52.608;13.260;2024-02-23T01:56:37;2.63;;;0.88;;
71462;SDS011;59266;52.608;13.260;2024-02-23T01:59:05;1.73;;;0.82;;
71462;SDS011;59266;52.608;13.260;2024-02-23T02:01:32;2.30;;;0.85;;
71462;SDS011;59266;52.608;13.260;2024-02-23T02:03:59;2.78;;;0.80;;
71462;SDS011;59266;52.608;13.260;2024-02-23T02:06:26;2.75;;;0.98;;
71462;SDS011;59266;52.608;13.260;2024-02-23T02:08:53;4.15;;;1.05;;
71462;SDS011;59266;52.608;13.260;2024-02-23T02:11:20;2.15;;;0.80;;
71462;SDS011;59266;52.608;13.260;2024-02-23T02:13:47;1.98;;;0.80;;
71462;SDS011;59266;52.608;13.260;2024-02-23T02:16:14;3.17;;;0.90;;
71462;SDS011;59266;52.608;13.260;2024-02-23T02:18:41;2.33;;;0.85;;
71462;SDS011;59266;52.608;13.260;2024-02-23T02:21:08;1.85;;;0.80;;
71462;SDS011;59266;52.608;13.260;2024-02-23T02:23:34;2.45;;;0.82;;
71462;SDS011;59266;52.608;13.260;2024-02-23T02:26:03;1.98;;;0.80;;
71462;SDS011;59266;52.608;13.260;2024-02-23T02:28:31;2.25;;;0.80;;
71462;SDS011;59266;52.608;13.260;2024-02-23T02:30:57;2.13;;;0.80;;
71462;SDS011;59266;52.608;13.260;2024-02-23T02:33:24;2.03;;;0.70;;
71462;SDS011;59266;52.608;13.260;2024-02-23T02:35:51;1.92;;;0.57;;
71462;SDS011;59266;52.608;13.260;2024-02-23T02:38:17;2.38;;;0.70;;
71462;SDS011;59266;52.608;13.260;2024-02-23T02:40:44;2.47;;;0.80;;
71462;SDS011;59266;52.608;13.260;2024-02-23T02:43:11;3.25;;;0.60;;
71462;SDS011;59266;52.608;13.260;2024-02-23T02:45:37;1.88;;;0.55;;
71462;SDS011;59266;52.608;13.260;2024-02-23T02:48:04;0.98;;;0.30;;
71462;SDS011;59266;52.608;13.260;2024-02-23T02:50:32;1.30;;;0.40;;
71462;SDS011;59266;52.608;13.260;2024-02-23T02:52:58;1.05;;;0.30;;
71462;SDS011;59266;52.608;13.260;2024-02-23T02:55:25;2.00;;;0.38;;
71462;SDS011;59266;52.608;13.260;2024-02-23T02:57:51;1.52;;;0.43;;
71462;SDS011;59266;52.608;13.260;2024-02-23T03:00:18;1.83;;;0.38;;
71462;SDS011;59266;52.608;13.260;2024-02-23T03:02:44;0.60;;;0.30;;
71462;SDS011;59266;52.608;13.260;2024-02-23T03:05:11;1.08;;;0.40;;
71462;SDS011;59266;52.608;13.260;2024-02-23T03:07:38;2.92;;;0.32;;
71462;SDS011;59266;52.608;13.260;2024-02-23T03:10:04;2.80;;;0.45;;
71462;SDS011;59266;52.608;13.260;2024-02-23T03:12:32;0.95;;;0.30;;
71462;SDS011;59266;52.608;13.260;2024-02-23T03:14:58;1.38;;;0.30;;
71462;SDS011;59266;52.608;13.260;2024-02-23T03:17:25;0.85;;;0.30;;
71462;SDS011;59266;52.608;13.260;2024-02-23T03:19:52;0.80;;;0.30;;
71462;SDS011;59266;52.608;13.260;2024-02-23T03:22:19;0.93;;;0.38;;
71462;SDS011;59266;52.608;13.260;2024-02-23T03:24:45;2.35;;;0.60;;
71462;SDS011;59266;52.608;13.260;2024-02-23T03:27:12;1.80;;;0.50;;
71462;SDS011;59266;52.608;13.260;2024-02-23T03:29:39;2.15;;;0.50;;
71462;SDS011;59266;52.608;13.260;2024-02-23T03:32:07;1.70;;;0.40;;
71462;SDS011;59266;52.608;13.260;2024-02-23T03:34:33;4.32;;;0.60;;
71462;SDS011;59266;52.608;13.260;2024-02-23T03:37:01;1.67;;;0.60;;
71462;SDS011;59266;52.608;13.260;2024-02-23T03:39:28;0.90;;;0.30;;
71462;SDS011;59266;52.608;13.260;2024-02-23T03:41:55;0.65;;;0.30;;
71462;SDS011;59266;52.608;13.260;2024-02-23T03:44:22;1.85;;;0.40;;
71462;SDS011;59266;52.608;13.260;2024-02-23T03:46:48;2.55;;;0.40;;
71462;SDS011;59266;52.608;13.260;2024-02-23T03:49:16;1.70;;;0.43;;
71462;SDS011;59266;52.608;13.260;2024-02-23T03:51:42;2.08;;;0.50;;
71462;SDS011;59266;52.608;13.260;2024-02-23T03:54:09;1.27;;;0.43;;
71462;SDS011;59266;52.608;13.260;2024-02-23T03:56:39;0.60;;;0.30;;
71462;SDS011;59266;52.608;13.260;2024-02-23T03:59:07;0.45;;;0.28;;
71462;SDS011;59266;52.608;13.260;2024-02-23T04:01:38;0.82;;;0.22;;
71462;SDS011;59266;52.608;13.260;2024-02-23T04:04:06;0.50;;;0.20;;
71462;SDS011;59266;52.608;13.260;2024-02-23T04:06:33;1.60;;;0.40;;
71462;SDS011;59266;52.608;13.260;2024-02-23T04:09:00;2.17;;;0.50;;
71462;SDS011;59266;52.608;13.260;2024-02-23T04:11:27;1.50;;;0.40;;
71462;SDS011;59266;52.608;13.260;2024-02-23T04:13:54;1.50;;;0.40;;
71462;SDS011;59266;52.608;13.260;2024-02-23T04:16:24;0.98;;;0.30;;
71462;SDS011;59266;52.608;13.260;2024-02-23T04:18:51;1.92;;;0.40;;
71462;SDS011;59266;52.608;13.260;2024-02-23T04:21:18;1.85;;;0.30;;
71462;SDS011;59266;52.608;13.260;2024-02-23T04:23:44;5.00;;;0.50;;
71462;SDS011;59266;52.608;13.260;2024-02-23T04:26:11;1.33;;;0.40;;
71462;SDS011;59266;52.608;13.260;2024-02-23T04:28:39;1.30;;;0.38;;
71462;SDS011;59266;52.608;13.260;2024-02-23T04:31:07;2.08;;;0.45;;
71462;SDS011;59266;52.608;13.260;2024-02-23T04:33:35;1.70;;;0.28;;
71462;SDS011;59266;52.608;13.260;2024-02-23T04:36:03;0.90;;;0.25;;
71462;SDS011;59266;52.608;13.260;2024-02-23T04:38:30;2.55;;;0.57;;
71462;SDS011;59266;52.608;13.260;2024-02-23T04:40:57;1.65;;;0.30;;
71462;SDS011;59266;52.608;13.260;2024-02-23T04:43:24;5.60;;;0.60;;
71462;SDS011;59266;52.608;13.260;2024-02-23T04:45:51;2.33;;;0.40;;
71462;SDS011;59266;52.608;13.260;2024-02-23T04:48:18;3.35;;;0.38;;
71462;SDS011;59266;52.608;13.260;2024-02-23T04:50:44;1.42;;;0.50;;
71462;SDS011;59266;52.608;13.260;2024-02-23T04:53:11;0.35;;;0.25;;
71462;SDS011;59266;52.608;13.260;2024-02-23T04:55:38;1.45;;;0.40;;
71462;SDS011;59266;52.608;13.260;2024-02-23T04:58:05;1.70;;;0.40;;
71462;SDS011;59266;52.608;13.260;2024-02-23T05:00:32;0.80;;;0.40;;
71462;SDS011;59266;52.608;13.260;2024-02-23T05:03:00;1.05;;;0.32;;
71462;SDS011;59266;52.608;13.260;2024-02-23T05:05:30;0.40;;;0.30;;
71462;SDS011;59266;52.608;13.260;2024-02-23T05:07:57;18.73;;;0.60;;
71462;SDS011;59266;52.608;13.260;2024-02-23T05:10:23;1.70;;;0.30;;
71462;SDS011;59266;52.608;13.260;2024-02-23T05:12:50;0.38;;;0.20;;
71462;SDS011;59266;52.608;13.260;2024-02-23T05:15:17;0.90;;;0.30;;
71462;SDS011;59266;52.608;13.260;2024-02-23T05:17:43;5.38;;;0.40;;
71462;SDS011;59266;52.608;13.260;2024-02-23T05:20:10;0.43;;;0.30;;
71462;SDS011;59266;52.608;13.260;2024-02-23T05:22:38;0.45;;;0.10;;
71462;SDS011;59266;52.608;13.260;2024-02-23T05:25:04;0.30;;;0.20;;
71462;SDS011;59266;52.608;13.260;2024-02-23T05:27:32;0.38;;;0.30;;
71462;SDS011;59266;52.608;13.260;2024-02-23T05:29:59;0.65;;;0.30;;
71462;SDS011;59266;52.608;13.260;2024-02-23T05:32:26;1.02;;;0.20;;
71462;SDS011;59266;52.608;13.260;2024-02-23T05:34:52;0.95;;;0.80;;
71462;SDS011;59266;52.608;13.260;2024-02-23T05:37:20;0.30;;;0.30;;
71462;SDS011;59266;52.608;13.260;2024-02-23T05:39:47;0.65;;;0.30;;
71462;SDS011;59266;52.608;13.260;2024-02-23T05:42:13;0.30;;;0.22;;
71462;SDS011;59266;52.608;13.260;2024-02-23T05:44:44;0.65;;;0.25;;
71462;SDS011;59266;52.608;13.260;2024-02-23T05:47:11;0.17;;;0.17;;
71462;SDS011;59266;52.608;13.260;2024-02-23T05:49:40;0.98;;;0.30;;
71462;SDS011;59266;52.608;13.260;2024-02-23T05:52:07;1.05;;;0.30;;
71462;SDS011;59266;52.608;13.260;2024-02-23T05:54:34;1.23;;;0.50;;
71462;SDS011;59266;52.608;13.260;2024-02-23T05:57:01;0.77;;;0.40;;
71462;SDS011;59266;52.608;13.260;2024-02-23T05:59:27;0.45;;;0.30;;
71462;SDS011;59266;52.608;13.260;2024-02-23T06:01:54;1.35;;;0.40;;
71462;SDS011;59266;52.608;13.260;2024-02-23T06:04:24;1.10;;;0.40;;
71462;SDS011;59266;52.608;13.260;2024-02-23T06:06:51;1.55;;;0.50;;
71462;SDS011;59266;52.608;13.260;2024-02-23T06:09:18;2.13;;;0.43;;
71462;SDS011;59266;52.608;13.260;2024-02-23T06:11:45;5.57;;;0.40;;
71462;SDS011;59266;52.608;13.260;2024-02-23T06:14:12;1.55;;;0.40;;
71462;SDS011;59266;52.608;13.260;2024-02-23T06:16:39;1.08;;;0.50;;
71462;SDS011;59266;52.608;13.260;2024-02-23T06:19:08;0.35;;;0.30;;
71462;SDS011;59266;52.608;13.260;2024-02-23T06:21:35;0.47;;;0.30;;
71462;SDS011;59266;52.608;13.260;2024-02-23T06:24:02;0.75;;;0.45;;
71462;SDS011;59266;52.608;13.260;2024-02-23T06:26:30;1.15;;;0.30;;
71462;SDS011;59266;52.608;13.260;2024-02-23T06:28:57;2.33;;;0.57;;
71462;SDS011;59266;52.608;13.260;2024-02-23T06:31:23;1.50;;;0.40;;
71462;SDS011;59266;52.608;13.260;2024-02-23T06:33:50;0.43;;;0.40;;
71462;SDS011;59266;52.608;13.260;2024-02-23T06:36:18;0.65;;;0.35;;
71462;SDS011;59266;52.608;13.260;2024-02-23T06:38:45;0.98;;;0.45;;
71462;SDS011;59266;52.608;13.260;2024-02-23T06:41:11;1.00;;;0.43;;
71462;SDS011;59266;52.608;13.260;2024-02-23T06:43:38;1.20;;;0.30;;
71462;SDS011;59266;52.608;13.260;2024-02-23T06:46:06;1.13;;;0.60;;
71462;SDS011;59266;52.608;13.260;2024-02-23T06:48:34;1.40;;;0.32;;
71462;SDS011;59266;52.608;13.260;2024-02-23T06:51:01;1.08;;;0.50;;
71462;SDS011;59266;52.608;13.260;2024-02-23T07:00:20;2.72;;;0.57;;
71462;SDS011;59266;52.608;13.260;2024-02-23T07:02:47;2.95;;;0.85;;
71462;SDS011;59266;52.608;13.260;2024-02-23T07:05:14;1.33;;;0.60;;
71462;SDS011;59266;52.608;13.260;2024-02-23T07:07:41;1.20;;;0.40;;
71462;SDS011;59266;52.608;13.260;2024-02-23T07:10:07;1.08;;;0.40;;
71462;SDS011;59266;52.608;13.260;2024-02-23T07:12:35;2.30;;;0.43;;
71462;SDS011;59266;52.608;13.260;2024-02-23T07:15:01;0.93;;;0.57;;
71462;SDS011;59266;52.608;13.260;2024-02-23T07:17:28;2.10;;;0.80;;
71462;SDS011;59266;52.608;13.260;2024-02-23T07:19:55;1.27;;;0.50;;
71462;SDS011;59266;52.608;13.260;2024-02-23T07:22:29;1.65;;;0.70;;
71462;SDS011;59266;52.608;13.260;2024-02-23T07:24:55;2.35;;;0.60;;
71462;SDS011;59266;52.608;13.260;2024-02-23T07:27:22;3.72;;;0.70;;
71462;SDS011;59266;52.608;13.260;2024-02-23T07:29:49;1.75;;;0.50;;
71462;SDS011;59266;52.608;13.260;2024-02-23T07:32:15;1.02;;;0.75;;
71462;SDS011;59266;52.608;13.260;2024-02-23T07:34:42;3.25;;;0.52;;
71462;SDS011;59266;52.608;13.260;2024-02-23T07:37:09;0.80;;;0.57;;
71462;SDS011;59266;52.608;13.260;2024-02-23T07:39:35;1.63;;;0.60;;
71462;SDS011;59266;52.608;13.260;2024-02-23T07:42:02;1.50;;;0.73;;
71462;SDS011;59266;52.608;13.260;2024-02-23T07:44:29;1.42;;;0.60;;
71462;SDS011;59266;52.608;13.260;2024-02-23T07:46:56;2.42;;;0.68;;
71462;SDS011;59266;52.608;13.260;2024-02-23T07:49:24;2.80;;;0.60;;
71462;SDS011;59266;52.608;13.260;2024-02-23T07:51:51;0.63;;;0.50;;
71462;SDS011;59266;52.608;13.260;2024-02-23T07:54:17;1.98;;;0.73;;
71462;SDS011;59266;52.608;13.260;2024-02-23T07:56:44;0.65;;;0.50;;
71462;SDS011;59266;52.608;13.260;2024-02-23T07:59:11;1.85;;;0.70;;
71462;SDS011;59266;52.608;13.260;2024-02-23T08:01:37;1.73;;;0.50;;
71462;SDS011;59266;52.608;13.260;2024-02-23T08:04:06;0.85;;;0.50;;
71462;SDS011;59266;52.608;13.260;2024-02-23T08:06:33;1.17;;;0.52;;
71462;SDS011;59266;52.608;13.260;2024-02-23T08:08:59;2.40;;;0.60;;
71462;SDS011;59266;52.608;13.260;2024-02-23T08:11:26;1.95;;;0.55;;
71462;SDS011;59266;52.608;13.260;2024-02-23T08:13:52;1.02;;;0.50;;
71462;SDS011;59266;52.608;13.260;2024-02-23T08:16:19;2.15;;;0.60;;
71462;SDS011;59266;52.608;13.260;2024-02-23T08:18:45;0.80;;;0.43;;
71462;SDS011;59266;52.608;13.260;2024-02-23T08:21:12;2.33;;;0.50;;
71462;SDS011;59266;52.608;13.260;2024-02-23T08:23:39;2.17;;;0.70;;
71462;SDS011;59266;52.608;13.260;2024-02-23T08:26:05;1.17;;;0.50;;
71462;SDS011;59266;52.608;13.260;2024-02-23T08:28:32;1.40;;;0.50;;
71462;SDS011;59266;52.608;13.260;2024-02-23T08:30:59;0.70;;;0.40;;
71462;SDS011;59266;52.608;13.260;2024-02-23T08:33:26;2.92;;;0.65;;
71462;SDS011;59266;52.608;13.260;2024-02-23T08:35:52;1.77;;;0.70;;
71462;SDS011;59266;52.608;13.260;2024-02-23T08:38:19;1.35;;;0.50;;
71462;SDS011;59266;52.608;13.260;2024-02-23T08:40:46;0.55;;;0.40;;
71462;SDS011;59266;52.608;13.260;2024-02-23T08:43:13;1.20;;;0.70;;
71462;SDS011;59266;52.608;13.260;2024-02-23T08:45:39;0.70;;;0.50;;
71462;SDS011;59266;52.608;13.260;2024-02-23T08:48:07;1.90;;;0.50;;
71462;SDS011;59266;52.608;13.260;2024-02-23T08:50:35;1.08;;;0.40;;
71462;SDS011;59266;52.608;13.260;2024-02-23T08:53:02;1.17;;;0.40;;
71462;SDS011;59266;52.608;13.260;2024-02-23T08:55:29;1.48;;;0.50;;
71462;SDS011;59266;52.608;13.260;2024-02-23T08:57:55;1.15;;;0.52;;
71462;SDS011;59266;52.608;13.260;2024-02-23T09:00:22;1.13;;;0.50;;
71462;SDS011;59266;52.608;13.260;2024-02-23T09:02:50;0.88;;;0.50;;
71462;SDS011;59266;52.608;13.260;2024-02-23T09:05:20;0.75;;;0.40;;
71462;SDS011;59266;52.608;13.260;2024-02-23T09:07:47;2.78;;;0.50;;
71462;SDS011;59266;52.608;13.260;2024-02-23T09:10:13;1.23;;;0.40;;
71462;SDS011;59266;52.608;13.260;2024-02-23T09:12:40;0.95;;;0.47;;
71462;SDS011;59266;52.608;13.260;2024-02-23T09:15:06;1.80;;;0.32;;
71462;SDS011;59266;52.608;13.260;2024-02-23T09:17:34;0.93;;;0.40;;
71462;SDS011;59266;52.608;13.260;2024-02-23T09:20:00;3.75;;;0.40;;
71462;SDS011;59266;52.608;13.260;2024-02-23T09:22:27;1.25;;;0.45;;
71462;SDS011;59266;52.608;13.260;2024-02-23T09:24:54;3.95;;;0.40;;
71462;SDS011;59266;52.608;13.260;2024-02-23T09:27:22;3.17;;;0.50;;
71462;SDS011;59266;52.608;13.260;2024-02-23T09:29:49;0.85;;;0.32;;
71462;SDS011;59266;52.608;13.260;2024-02-23T09:32:16;2.85;;;0.50;;
71462;SDS011;59266;52.608;13.260;2024-02-23T09:34:43;1.25;;;0.30;;
71462;SDS011;59266;52.608;13.260;2024-02-23T09:37:10;0.28;;;0.28;;
71462;SDS011;59266;52.608;13.260;2024-02-23T09:39:37;1.58;;;0.50;;
71462;SDS011;59266;52.608;13.260;2024-02-23T09:42:04;1.85;;;0.50;;
71462;SDS011;59266;52.608;13.260;2024-02-23T09:44:36;1.98;;;0.50;;
71462;SDS011;59266;52.608;13.260;2024-02-23T09:47:04;1.77;;;0.40;;
71462;SDS011;59266;52.608;13.260;2024-02-23T09:49:38;4.30;;;0.60;;
71462;SDS011;59266;52.608;13.260;2024-02-23T09:52:08;1.92;;;0.60;;
71462;SDS011;59266;52.608;13.260;2024-02-23T09:54:38;2.92;;;0.63;;
71462;SDS011;59266;52.608;13.260;2024-02-23T09:57:09;2.00;;;0.50;;
71462;SDS011;59266;52.608;13.260;2024-02-23T09:59:36;2.13;;;0.40;;
71462;SDS011;59266;52.608;13.260;2024-02-23T10:02:07;2.28;;;0.40;;
71462;SDS011;59266;52.608;13.260;2024-02-23T10:04:38;3.97;;;0.65;;
71462;SDS011;59266;52.608;13.260;2024-02-23T10:07:06;1.92;;;0.50;;
71462;SDS011;59266;52.608;13.260;2024-02-23T10:09:32;3.30;;;0.52;;
71462;SDS011;59266;52.608;13.260;2024-02-23T10:11:59;2.08;;;0.50;;
71462;SDS011;59266;52.608;13.260;2024-02-23T10:14:27;3.53;;;0.50;;
71462;SDS011;59266;52.608;13.260;2024-02-23T10:16:54;1.33;;;0.40;;
71462;SDS011;59266;52.608;13.260;2024-02-23T10:19:21;2.22;;;0.47;;
71462;SDS011;59266;52.608;13.260;2024-02-23T10:21:48;5.07;;;0.40;;
71462;SDS011;59266;52.608;13.260;2024-02-23T10:24:15;1.10;;;0.38;;
71462;SDS011;59266;52.608;13.260;2024-02-23T10:26:43;2.55;;;0.40;;
71462;SDS011;59266;52.608;13.260;2024-02-23T10:29:10;3.47;;;0.63;;
71462;SDS011;59266;52.608;13.260;2024-02-23T10:31:39;2.17;;;0.38;;
71462;SDS011;59266;52.608;13.260;2024-02-23T10:34:07;4.40;;;0.50;;
71462;SDS011;59266;52.608;13.260;2024-02-23T10:36:40;2.92;;;0.55;;
71462;SDS011;59266;52.608;13.260;2024-02-23T10:39:08;1.20;;;0.20;;
71462;SDS011;59266;52.608;13.260;2024-02-23T10:41:36;1.17;;;0.30;;
71462;SDS011;59266;52.608;13.260;2024-02-23T10:44:05;1.08;;;0.40;;
71462;SDS011;59266;52.608;13.260;2024-02-23T10:46:32;1.05;;;0.38;;
71462;SDS011;59266;52.608;13.260;2024-02-23T10:48:59;1.65;;;0.30;;
71462;SDS011;59266;52.608;13.260;2024-02-23T10:51:27;2.15;;;0.60;;
71462;SDS011;59266;52.608;13.260;2024-02-23T10:53:54;2.42;;;0.40;;
71462;SDS011;59266;52.608;13.260;2024-02-23T10:56:21;1.65;;;0.40;;
71462;SDS011;59266;52.608;13.260;2024-02-23T10:58:48;1.42;;;0.30;;
71462;SDS011;59266;52.608;13.260;2024-02-23T11:01:15;10.85;;;0.52;;
71462;SDS011;59266;52.608;13.260;2024-02-23T11:03:44;1.33;;;0.43;;
71462;SDS011;59266;52.608;13.260;2024-02-23T11:06:16;2.80;;;0.70;;
71462;SDS011;59266;52.608;13.260;2024-02-23T11:08:47;14.50;;;0.52;;
71462;SDS011;59266;52.608;13.260;2024-02-23T11:11:15;2.53;;;0.50;;
71462;SDS011;59266;52.608;13.260;2024-02-23T11:13:44;3.63;;;0.50;;
71462;SDS011;59266;52.608;13.260;2024-02-23T11:16:20;1.60;;;0.50;;
71462;SDS011;59266;52.608;13.260;2024-02-23T11:18:48;1.67;;;0.40;;
71462;SDS011;59266;52.608;13.260;2024-02-23T11:21:15;2.33;;;0.40;;
71462;SDS011;59266;52.608;13.260;2024-02-23T11:23:41;2.92;;;0.50;;
71462;SDS011;59266;52.608;13.260;2024-02-23T11:26:09;1.70;;;0.43;;
71462;SDS011;59266;52.608;13.260;2024-02-23T11:31:18;1.88;;;0.50;;
71462;SDS011;59266;52.608;13.260;2024-02-23T11:33:50;2.67;;;0.40;;
71462;SDS011;59266;52.608;13.260;2024-02-23T11:38:58;2.45;;;0.50;;
71462;SDS011;59266;52.608;13.260;2024-02-23T11:41:27;3.40;;;0.40;;
71462;SDS011;59266;52.608;13.260;2024-02-23T11:43:54;3.70;;;0.57;;
71462;SDS011;59266;52.608;13.260;2024-02-23T11:46:22;2.08;;;0.32;;
71462;SDS011;59266;52.608;13.260;2024-02-23T11:48:49;2.50;;;0.50;;
71462;SDS011;59266;52.608;13.260;2024-02-23T11:51:28;1.33;;;0.50;;
71462;SDS011;59266;52.608;13.260;2024-02-23T11:53:57;2.58;;;0.70;;
71462;SDS011;59266;52.608;13.260;2024-02-23T11:56:24;1.25;;;0.43;;
71462;SDS011;59266;52.608;13.260;2024-02-23T11:58:51;4.13;;;0.57;;
71462;SDS011;59266;52.608;13.260;2024-02-23T12:01:20;3.67;;;0.80;;
71462;SDS011;59266;52.608;13.260;2024-02-23T12:03:47;2.55;;;0.60;;
71462;SDS011;59266;52.608;13.260;2024-02-23T12:06:16;3.15;;;0.60;;
71462;SDS011;59266;52.608;13.260;2024-02-23T12:08:43;1.83;;;0.35;;
71462;SDS011;59266;52.608;13.260;2024-02-23T12:11:11;1.98;;;0.52;;
71462;SDS011;59266;52.608;13.260;2024-02-23T12:13:40;1.45;;;0.40;;
71462;SDS011;59266;52.608;13.260;2024-02-23T12:16:07;3.22;;;0.60;;
71462;SDS011;59266;52.608;13.260;2024-02-23T12:18:34;1.70;;;0.65;;
71462;SDS011;59266;52.608;13.260;2024-02-23T12:21:05;3.10;;;0.50;;
71462;SDS011;59266;52.608;13.260;2024-02-23T12:23:39;2.55;;;0.40;;
71462;SDS011;59266;52.608;13.260;2024-02-23T12:26:06;2.50;;;0.43;;
71462;SDS011;59266;52.608;13.260;2024-02-23T12:28:34;1.17;;;0.25;;
71462;SDS011;59266;52.608;13.260;2024-02-23T12:31:00;3.63;;;0.52;;
71462;SDS011;59266;52.608;13.260;2024-02-23T12:33:31;2.80;;;0.57;;
71462;SDS011;59266;52.608;13.260;2024-02-23T12:35:59;3.25;;;0.47;;
71462;SDS011;59266;52.608;13.260;2024-02-23T12:38:26;2.65;;;0.50;;
71462;SDS011;59266;52.608;13.260;2024-02-23T12:40:53;1.85;;;0.40;;
71462;SDS011;59266;52.608;13.260;2024-02-23T12:43:19;3.22;;;0.40;;
71462;SDS011;59266;52.608;13.260;2024-02-23T12:45:47;1.20;;;0.50;;
71462;SDS011;59266;52.608;13.260;2024-02-23T12:48:17;1.98;;;0.50;;
71462;SDS011;59266;52.608;13.260;2024-02-23T12:50:49;4.15;;;0.70;;
71462;SDS011;59266;52.608;13.260;2024-02-23T12:53:35;2.53;;;0.40;;
71462;SDS011;59266;52.608;13.260;2024-02-23T12:56:11;3.38;;;0.63;;
71462;SDS011;59266;52.608;13.260;2024-02-23T12:58:43;1.48;;;0.40;;
71462;SDS011;59266;52.608;13.260;2024-02-23T13:01:10;3.30;;;0.60;;
71462;SDS011;59266;52.608;13.260;2024-02-23T13:03:38;0.98;;;0.25;;
71462;SDS011;59266;52.608;13.260;2024-02-23T13:06:07;1.02;;;0.38;;
71462;SDS011;59266;52.608;13.260;2024-02-23T13:08:34;0.82;;;0.25;;
71462;SDS011;59266;52.608;13.260;2024-02-23T13:11:01;1.88;;;0.38;;
71462;SDS011;59266;52.608;13.260;2024-02-23T13:13:28;1.73;;;0.40;;
71462;SDS011;59266;52.608;13.260;2024-02-23T13:15:55;4.65;;;0.65;;
71462;SDS011;59266;52.608;13.260;2024-02-23T13:18:23;2.35;;;0.45;;
71462;SDS011;59266;52.608;13.260;2024-02-23T13:20:51;1.70;;;0.50;;
71462;SDS011;59266;52.608;13.260;2024-02-23T13:23:18;2.13;;;0.50;;
71462;SDS011;59266;52.608;13.260;2024-02-23T13:25:45;1.17;;;0.40;;
71462;SDS011;59266;52.608;13.260;2024-02-23T13:28:14;2.13;;;0.45;;
71462;SDS011;59266;52.608;13.260;2024-02-23T13:30:41;4.88;;;0.70;;
71462;SDS011;59266;52.608;13.260;2024-02-23T13:33:08;4.13;;;0.60;;
71462;SDS011;59266;52.608;13.260;2024-02-23T13:35:37;2.40;;;0.70;;
71462;SDS011;59266;52.608;13.260;2024-02-23T13:38:05;1.88;;;0.60;;
71462;SDS011;59266;52.608;13.260;2024-02-23T13:40:33;1.52;;;0.40;;
71462;SDS011;59266;52.608;13.260;2024-02-23T13:43:00;1.35;;;0.50;;
71462;SDS011;59266;52.608;13.260;2024-02-23T13:45:27;2.75;;;0.60;;
71462;SDS011;59266;52.608;13.260;2024-02-23T13:47:57;3.53;;;0.63;;
71462;SDS011;59266;52.608;13.260;2024-02-23T13:50:30;1.10;;;0.50;;
71462;SDS011;59266;52.608;13.260;2024-02-23T13:52:57;2.80;;;0.73;;
71462;SDS011;59266;52.608;13.260;2024-02-23T13:55:24;2.03;;;0.60;;
71462;SDS011;59266;52.608;13.260;2024-02-23T13:57:51;3.47;;;0.68;;
71462;SDS011;59266;52.608;13.260;2024-02-23T14:00:18;2.50;;;0.70;;
71462;SDS011;59266;52.608;13.260;2024-02-23T14:02:45;3.65;;;0.80;;
71462;SDS011;59266;52.608;13.260;2024-02-23T14:05:13;4.93;;;0.90;;
71462;SDS011;59266;52.608;13.260;2024-02-23T14:07:42;3.80;;;0.80;;
71462;SDS011;59266;52.608;13.260;2024-02-23T14:10:08;4.43;;;1.20;;
71462;SDS011;59266;52.608;13.260;2024-02-23T14:12:35;4.43;;;0.63;;
71462;SDS011;59266;52.608;13.260;2024-02-23T14:15:02;4.45;;;0.80;;
71462;SDS011;59266;52.608;13.260;2024-02-23T14:17:28;3.78;;;0.85;;
71462;SDS011;59266;52.608;13.260;2024-02-23T14:19:55;5.20;;;0.60;;
71462;SDS011;59266;52.608;13.260;2024-02-23T14:22:28;1.65;;;0.50;;
71462;SDS011;59266;52.608;13.260;2024-02-23T14:24:54;2.13;;;0.60;;
71462;SDS011;59266;52.608;13.260;2024-02-23T14:27:21;1.65;;;0.57;;
71462;SDS011;59266;52.608;13.260;2024-02-23T14:29:48;3.60;;;0.70;;
71462;SDS011;59266;52.608;13.260;2024-02-23T14:32:16;3.00;;;0.70;;
71462;SDS011;59266;52.608;13.260;2024-02-23T14:34:44;1.23;;;0.60;;
71462;SDS011;59266;52.608;13.260;2024-02-23T14:37:11;4.22;;;0.70;;
71462;SDS011;59266;52.608;13.260;2024-02-23T14:39:38;2.45;;;0.85;;
71462;SDS011;59266;52.608;13.260;2024-02-23T14:42:04;3.30;;;0.93;;
71462;SDS011;59266;52.608;13.260;2024-02-23T14:44:31;2.15;;;0.60;;
71462;SDS011;59266;52.608;13.260;2024-02-23T14:46:58;3.55;;;0.50;;